sensor_id;sensor_type;location;lat;lon;timestamp;pressure;altitude;pressure_sealevel;temperature;humidity
11487;BME280;10510;47.942;9.442;2023-04-03T00:00:34;95020.88;;;1.80;100.00
11487;BME280;10510;47.942;9.442;2023-04-03T00:02:34;95021.94;;;1.77;100.00
11487;BME280;10510;47.942;9.442;2023-04-03T00:04:34;95016.78;;;1.77;100.00
11487;BME280;10510;47.942;9.442;2023-04-03T00:06:35;95015.81;;;1.78;100.00
11487;BME280;10510;47.942;9.442;2023-04-03T00:08:35;95024.59;;;1.76;100.00
11487;BME280;10510;47.942;9.442;2023-04-03T00:10:36;95022.03;;;1.76;100.00
11487;BME280;10510;47.942;9.442;2023-04-03T00:12:37;95020.50;;;1.73;100.00
11487;BME280;10510;47.942;9.442;2023-04-03T00:14:37;95029.09;;;1.74;100.00
11487;BME280;10510;47.942;9.442;2023-04-03T00:16:37;95020.50;;;1.73;100.00
11487;BME280;10510;47.942;9.442;2023-04-03T00:18:39;95019.69;;;1.73;100.00
11487;BME280;10510;47.942;9.442;2023-04-03T00:20:39;95024.84;;;1.73;100.00
11487;BME280;10510;47.942;9.442;2023-04-03T00:22:40;95022.28;;;1.73;100.00
11487;BME280;10510;47.942;9.442;2023-04-03T00:24:40;95031.75;;;1.72;100.00
11487;BME280;10510;47.942;9.442;2023-04-03T00:26:40;95026.03;;;1.69;100.00
11487;BME280;10510;47.942;9.442;2023-04-03T00:28:40;95027.91;;;1.67;100.00
11487;BME280;10510;47.942;9.442;2023-04-03T00:30:41;95029.66;;;1.66;100.00
11487;BME280;10510;47.942;9.442;2023-04-03T00:32:41;95031.31;;;1.67;100.00
11487;BME280;10510;47.942;9.442;2023-04-03T00:34:42;95033.78;;;1.69;100.00
11487;BME280;10510;47.942;9.442;2023-04-03T00:36:42;95029.31;;;1.71;100.00
11487;BME280;10510;47.942;9.442;2023-04-03T00:38:42;95032.97;;;1.68;100.00
11487;BME280;10510;47.942;9.442;2023-04-03T00:40:45;95035.78;;;1.65;100.00
11487;BME280;10510;47.942;9.442;2023-04-03T00:42:47;95034.81;;;1.66;100.00
11487;BME280;10510;47.942;9.442;2023-04-03T00:46:48;95029.56;;;1.68;100.00
11487;BME280;10510;47.942;9.442;2023-04-03T00:48:49;95027.00;;;1.68;100.00
11487;BME280;10510;47.942;9.442;2023-04-03T00:50:50;95032.97;;;1.68;100.00
11487;BME280;10510;47.942;9.442;2023-04-03T00:52:52;95034.59;;;1.69;100.00
11487;BME280;10510;47.942;9.442;2023-04-03T00:54:54;95032.00;;;1.69;100.00
11487;BME280;10510;47.942;9.442;2023-04-03T00:56:57;95040.44;;;1.71;100.00
11487;BME280;10510;47.942;9.442;2023-04-03T00:59:04;95038.69;;;1.72;100.00
11487;BME280;10510;47.942;9.442;2023-04-03T01:01:08;95033.88;;;1.67;100.00
11487;BME280;10510;47.942;9.442;2023-04-03T01:03:10;95029.66;;;1.66;100.00
11487;BME280;10510;47.942;9.442;2023-04-03T01:05:11;95030.47;;;1.67;100.00
11487;BME280;10510;47.942;9.442;2023-04-03T01:07:15;95035.78;;;1.65;100.00
11487;BME280;10510;47.942;9.442;2023-04-03T01:09:15;95031.53;;;1.64;100.00
11487;BME280;10510;47.942;9.442;2023-04-03T01:11:16;95038.81;;;1.59;100.00
11487;BME280;10510;47.942;9.442;2023-04-03T01:13:27;95034.13;;;1.53;100.00
11487;BME280;10510;47.942;9.442;2023-04-03T01:15:28;95029.44;;;1.47;100.00
11487;BME280;10510;47.942;9.442;2023-04-03T01:17:41;95039.53;;;1.39;100.00
11487;BME280;10510;47.942;9.442;2023-04-03T01:19:43;95045.16;;;1.32;100.00
11487;BME280;10510;47.942;9.442;2023-04-03T01:22:09;95046.44;;;1.27;100.00
11487;BME280;10510;47.942;9.442;2023-04-03T01:24:27;95058.03;;;1.21;100.00
11487;BME280;10510;47.942;9.442;2023-04-03T01:26:32;95050.78;;;1.15;100.00
11487;BME280;10510;47.942;9.442;2023-04-03T01:28:34;95047.72;;;1.10;100.00
11487;BME280;10510;47.942;9.442;2023-04-03T01:30:41;95046.53;;;1.03;100.00
11487;BME280;10510;47.942;9.442;2023-04-03T01:32:43;95049.56;;;0.97;100.00
11487;BME280;10510;47.942;9.442;2023-04-03T01:34:43;95051.53;;;0.93;100.00
11487;BME280;10510;47.942;9.442;2023-04-03T01:36:43;95047.44;;;0.90;100.00
11487;BME280;10510;47.942;9.442;2023-04-03T01:38:44;95043.34;;;0.88;100.00
11487;BME280;10510;47.942;9.442;2023-04-03T01:40:44;95041.72;;;0.87;100.00
11487;BME280;10510;47.942;9.442;2023-04-03T01:42:44;95047.09;;;0.84;100.00
11487;BME280;10510;47.942;9.442;2023-04-03T01:44:45;95049.75;;;0.82;100.00
11487;BME280;10510;47.942;9.442;2023-04-03T01:46:46;95046.50;;;0.80;100.00
11487;BME280;10510;47.942;9.442;2023-04-03T01:48:46;95044.03;;;0.79;100.00
11487;BME280;10510;47.942;9.442;2023-04-03T01:50:47;95049.19;;;0.79;100.00
11487;BME280;10510;47.942;9.442;2023-04-03T01:52:47;95046.59;;;0.79;100.00
11487;BME280;10510;47.942;9.442;2023-04-03T01:54:47;95053.50;;;0.78;100.00
11487;BME280;10510;47.942;9.442;2023-04-03T01:56:48;95049.31;;;0.77;100.00
11487;BME280;10510;47.942;9.442;2023-04-03T01:58:48;95049.41;;;0.76;100.00
11487;BME280;10510;47.942;9.442;2023-04-03T02:00:48;95049.41;;;0.76;100.00
11487;BME280;10510;47.942;9.442;2023-04-03T02:02:48;95049.41;;;0.76;100.00
11487;BME280;10510;47.942;9.442;2023-04-03T02:04:49;95047.66;;;0.76;100.00
11487;BME280;10510;47.942;9.442;2023-04-03T02:06:49;95051.88;;;0.77;100.00
11487;BME280;10510;47.942;9.442;2023-04-03T02:08:50;95055.25;;;0.78;100.00
11487;BME280;10510;47.942;9.442;2023-04-03T02:10:51;95048.34;;;0.78;100.00
11487;BME280;10510;47.942;9.442;2023-04-03T02:12:51;95059.47;;;0.79;100.00
11487;BME280;10510;47.942;9.442;2023-04-03T02:14:51;95051.16;;;0.75;100.00
11487;BME280;10510;47.942;9.442;2023-04-03T02:16:52;95052.34;;;0.71;100.00
11487;BME280;10510;47.942;9.442;2023-04-03T02:18:52;95050.56;;;0.72;100.00
11487;BME280;10510;47.942;9.442;2023-04-03T02:20:52;95048.22;;;0.68;100.00
11487;BME280;10510;47.942;9.442;2023-04-03T02:22:53;95053.38;;;0.68;100.00
11487;BME280;10510;47.942;9.442;2023-04-03T02:24:53;95046.69;;;0.66;100.00
11487;BME280;10510;47.942;9.442;2023-04-03T02:26:53;95043.41;;;0.64;100.00
11487;BME280;10510;47.942;9.442;2023-04-03T02:28:53;95045.16;;;0.63;100.00
11487;BME280;10510;47.942;9.442;2023-04-03T02:30:54;95044.44;;;0.61;100.00
11487;BME280;10510;47.942;9.442;2023-04-03T02:32:54;95054.06;;;0.59;100.00
11487;BME280;10510;47.942;9.442;2023-04-03T02:34:54;95047.38;;;0.57;100.00
11487;BME280;10510;47.942;9.442;2023-04-03T02:36:54;95050.19;;;0.54;100.00
11487;BME280;10510;47.942;9.442;2023-04-03T02:38:55;95047.69;;;0.52;100.00
11487;BME280;10510;47.942;9.442;2023-04-03T02:41:09;95053.78;;;0.51;100.00
11487;BME280;10510;47.942;9.442;2023-04-03T02:43:10;95059.03;;;0.50;100.00
11487;BME280;10510;47.942;9.442;2023-04-03T02:45:11;95058.44;;;0.46;100.00
11487;BME280;10510;47.942;9.442;2023-04-03T02:47:11;95052.56;;;0.44;100.00
11487;BME280;10510;47.942;9.442;2023-04-03T02:49:11;95057.84;;;0.42;100.00
11487;BME280;10510;47.942;9.442;2023-04-03T02:51:12;95055.28;;;0.42;100.00
11487;BME280;10510;47.942;9.442;2023-04-03T02:53:12;95063.00;;;0.42;100.00
11487;BME280;10510;47.942;9.442;2023-04-03T02:55:14;95057.84;;;0.42;100.00
11487;BME280;10510;47.942;9.442;2023-04-03T02:57:15;95051.75;;;0.43;100.00
11487;BME280;10510;47.942;9.442;2023-04-03T02:59:16;95057.72;;;0.44;100.00
11487;BME280;10510;47.942;9.442;2023-04-03T03:01:16;95058.56;;;0.44;100.00
11487;BME280;10510;47.942;9.442;2023-04-03T03:03:16;95069.91;;;0.42;100.00
11487;BME280;10510;47.942;9.442;2023-04-03T03:05:17;95065.06;;;0.37;100.00
11487;BME280;10510;47.942;9.442;2023-04-03T03:07:17;95059.22;;;0.35;100.00
11487;BME280;10510;47.942;9.442;2023-04-03T03:09:17;95055.94;;;0.33;100.00
11487;BME280;10510;47.942;9.442;2023-04-03T03:11:18;95057.09;;;0.29;100.00
11487;BME280;10510;47.942;9.442;2023-04-03T03:13:18;95054.63;;;0.28;100.00
11487;BME280;10510;47.942;9.442;2023-04-03T03:15:18;95052.38;;;0.23;100.00
11487;BME280;10510;47.942;9.442;2023-04-03T03:17:19;95056.72;;;0.22;100.00
11487;BME280;10510;47.942;9.442;2023-04-03T03:19:19;95054.13;;;0.22;100.00
11487;BME280;10510;47.942;9.442;2023-04-03T03:21:20;95054.34;;;0.19;100.00
11487;BME280;10510;47.942;9.442;2023-04-03T03:23:21;95060.44;;;0.18;100.00
11487;BME280;10510;47.942;9.442;2023-04-03T03:25:22;95059.63;;;0.18;100.00
11487;BME280;10510;47.942;9.442;2023-04-03T03:27:22;95054.47;;;0.18;100.00
11487;BME280;10510;47.942;9.442;2023-04-03T03:29:24;95057.97;;;0.17;100.00
11487;BME280;10510;47.942;9.442;2023-04-03T03:31:24;95062.06;;;0.19;100.00
11487;BME280;10510;47.942;9.442;2023-04-03T03:33:25;95056.13;;;0.19;100.00
11487;BME280;10510;47.942;9.442;2023-04-03T03:35:26;95056.94;;;0.19;100.00
11487;BME280;10510;47.942;9.442;2023-04-03T03:37:26;95056.13;;;0.19;100.00
11487;BME280;10510;47.942;9.442;2023-04-03T03:39:27;95060.44;;;0.18;100.00
11487;BME280;10510;47.942;9.442;2023-04-03T03:41:27;95057.75;;;0.20;100.00
11487;BME280;10510;47.942;9.442;2023-04-03T03:43:27;95056.00;;;0.20;100.00
11487;BME280;10510;47.942;9.442;2023-04-03T03:45:27;95047.47;;;0.20;100.00
11487;BME280;10510;47.942;9.442;2023-04-03T03:47:28;95051.69;;;0.21;100.00
11487;BME280;10510;47.942;9.442;2023-04-03T03:49:28;95045.72;;;0.20;100.00
11487;BME280;10510;47.942;9.442;2023-04-03T03:51:28;95044.88;;;0.20;100.00
11487;BME280;10510;47.942;9.442;2023-04-03T03:53:28;95047.25;;;0.23;100.00
11487;BME280;10510;47.942;9.442;2023-04-03T03:55:29;95045.47;;;0.23;100.00
11487;BME280;10510;47.942;9.442;2023-04-03T03:57:29;95043.84;;;0.22;100.00
11487;BME280;10510;47.942;9.442;2023-04-03T03:59:30;95043.75;;;0.24;100.00
11487;BME280;10510;47.942;9.442;2023-04-03T04:01:31;95045.38;;;0.25;100.00
11487;BME280;10510;47.942;9.442;2023-04-03T04:03:31;95048.69;;;0.27;100.00
11487;BME280;10510;47.942;9.442;2023-04-03T04:05:33;95057.31;;;0.26;100.00
11487;BME280;10510;47.942;9.442;2023-04-03T04:07:33;95052.16;;;0.26;100.00
11487;BME280;10510;47.942;9.442;2023-04-03T04:09:33;95048.78;;;0.26;100.00
11487;BME280;10510;47.942;9.442;2023-04-03T04:11:33;95047.97;;;0.25;100.00
11487;BME280;10510;47.942;9.442;2023-04-03T04:13:34;95045.28;;;0.27;100.00
11487;BME280;10510;47.942;9.442;2023-04-03T04:15:34;95055.44;;;0.28;100.00
11487;BME280;10510;47.942;9.442;2023-04-03T04:17:35;95047.75;;;0.28;100.00
11487;BME280;10510;47.942;9.442;2023-04-03T04:19:35;95048.69;;;0.27;100.00
11487;BME280;10510;47.942;9.442;2023-04-03T04:21:36;95053.81;;;0.27;100.00
11487;BME280;10510;47.942;9.442;2023-04-03T04:23:36;95053.00;;;0.27;100.00
11487;BME280;10510;47.942;9.442;2023-04-03T04:25:36;95046.31;;;0.24;100.00
11487;BME280;10510;47.942;9.442;2023-04-03T04:27:37;95052.38;;;0.23;100.00
11487;BME280;10510;47.942;9.442;2023-04-03T04:29:37;95051.47;;;0.24;100.00
11487;BME280;10510;47.942;9.442;2023-04-03T04:31:38;95047.16;;;0.25;100.00
11487;BME280;10510;47.942;9.442;2023-04-03T04:33:38;95047.25;;;0.23;100.00
11487;BME280;10510;47.942;9.442;2023-04-03T04:35:38;95058.34;;;0.23;100.00
11487;BME280;10510;47.942;9.442;2023-04-03T04:37:38;95052.38;;;0.23;100.00
11487;BME280;10510;47.942;9.442;2023-04-03T04:39:39;95047.16;;;0.25;100.00
11487;BME280;10510;47.942;9.442;2023-04-03T04:41:39;95052.16;;;0.26;100.00
11487;BME280;10510;47.942;9.442;2023-04-03T04:43:39;95049.59;;;0.26;100.00
11487;BME280;10510;47.942;9.442;2023-04-03T04:45:41;95052.16;;;0.26;100.00
11487;BME280;10510;47.942;9.442;2023-04-03T04:47:41;95050.31;;;0.28;100.00
11487;BME280;10510;47.942;9.442;2023-04-03T04:49:41;95051.84;;;0.31;100.00
11487;BME280;10510;47.942;9.442;2023-04-03T04:51:41;95041.44;;;0.32;100.00
11487;BME280;10510;47.942;9.442;2023-04-03T04:53:42;95051.72;;;0.32;100.00
11487;BME280;10510;47.942;9.442;2023-04-03T04:55:42;95045.66;;;0.33;100.00
11487;BME280;10510;47.942;9.442;2023-04-03T04:57:43;95055.22;;;0.31;100.00
11487;BME280;10510;47.942;9.442;2023-04-03T04:59:43;95048.47;;;0.30;100.00
11487;BME280;10510;47.942;9.442;2023-04-03T05:01:43;95049.38;;;0.29;100.00
11487;BME280;10510;47.942;9.442;2023-04-03T05:03:44;95060.50;;;0.30;100.00
11487;BME280;10510;47.942;9.442;2023-04-03T05:05:44;95064.69;;;0.31;100.00
11487;BME280;10510;47.942;9.442;2023-04-03T05:07:45;95064.69;;;0.31;100.00
11487;BME280;10510;47.942;9.442;2023-04-03T05:09:45;95060.50;;;0.30;100.00
11487;BME280;10510;47.942;9.442;2023-04-03T05:11:46;95068.00;;;0.33;100.00
11487;BME280;10510;47.942;9.442;2023-04-03T05:13:46;95056.75;;;0.34;100.00
11487;BME280;10510;47.942;9.442;2023-04-03T05:15:46;95071.25;;;0.35;100.00
11487;BME280;10510;47.942;9.442;2023-04-03T05:17:47;95064.34;;;0.35;100.00
11487;BME280;10510;47.942;9.442;2023-04-03T05:19:47;95067.78;;;0.36;100.00
11487;BME280;10510;47.942;9.442;2023-04-03T05:21:47;95066.72;;;0.38;100.00
11487;BME280;10510;47.942;9.442;2023-04-03T05:23:48;95066.50;;;0.41;100.00
11487;BME280;10510;47.942;9.442;2023-04-03T05:25:48;95067.31;;;0.42;100.00
11487;BME280;10510;47.942;9.442;2023-04-03T05:27:49;95064.53;;;0.45;100.00
11487;BME280;10510;47.942;9.442;2023-04-03T05:29:50;95066.16;;;0.46;100.00
11487;BME280;10510;47.942;9.442;2023-04-03T05:31:50;95071.19;;;0.48;100.00
11487;BME280;10510;47.942;9.442;2023-04-03T05:33:51;95070.50;;;0.45;100.00
11487;BME280;10510;47.942;9.442;2023-04-03T05:35:52;95072.25;;;0.45;100.00
11487;BME280;10510;47.942;9.442;2023-04-03T05:37:52;95068.72;;;0.46;100.00
11487;BME280;10510;47.942;9.442;2023-04-03T05:39:52;95076.13;;;0.51;100.00
11487;BME280;10510;47.942;9.442;2023-04-03T05:41:53;95074.25;;;0.53;100.00
11487;BME280;10510;47.942;9.442;2023-04-03T05:43:53;95073.31;;;0.54;100.00
11487;BME280;10510;47.942;9.442;2023-04-03T05:45:53;95070.63;;;0.55;100.00
11487;BME280;10510;47.942;9.442;2023-04-03T05:47:54;95076.59;;;0.56;100.00
11487;BME280;10510;47.942;9.442;2023-04-03T05:49:54;95072.16;;;0.58;100.00
11487;BME280;10510;47.942;9.442;2023-04-03T05:51:54;95075.44;;;0.60;100.00
11487;BME280;10510;47.942;9.442;2023-04-03T05:54:00;95069.50;;;0.59;100.00
11487;BME280;10510;47.942;9.442;2023-04-03T05:56:03;95077.81;;;0.63;100.00
11487;BME280;10510;47.942;9.442;2023-04-03T05:58:03;95083.66;;;0.65;100.00
11487;BME280;10510;47.942;9.442;2023-04-03T06:00:08;95082.72;;;0.66;100.00
11487;BME280;10510;47.942;9.442;2023-04-03T06:02:15;95085.06;;;0.69;100.00
11487;BME280;10510;47.942;9.442;2023-04-03T06:04:16;95087.41;;;0.72;100.00
11487;BME280;10510;47.942;9.442;2023-04-03T06:06:16;95086.47;;;0.73;100.00
11487;BME280;10510;47.942;9.442;2023-04-03T06:08:16;95093.06;;;0.77;100.00
11487;BME280;10510;47.942;9.442;2023-04-03T06:10:17;95084.28;;;0.80;100.00
11487;BME280;10510;47.942;9.442;2023-04-03T06:12:18;95079.81;;;0.82;100.00
11487;BME280;10510;47.942;9.442;2023-04-03T06:14:18;95088.38;;;0.82;100.00
11487;BME280;10510;47.942;9.442;2023-04-03T06:16:19;95086.72;;;0.81;100.00
11487;BME280;10510;47.942;9.442;2023-04-03T06:18:19;95089.31;;;0.81;100.00
11487;BME280;10510;47.942;9.442;2023-04-03T06:20:20;95085.78;;;0.82;100.00
11487;BME280;10510;47.942;9.442;2023-04-03T06:22:21;95087.31;;;0.85;100.00
11487;BME280;10510;47.942;9.442;2023-04-03T06:24:21;95080.31;;;0.87;100.00
11487;BME280;10510;47.942;9.442;2023-04-03T06:26:24;95080.91;;;0.90;100.00
11487;BME280;10510;47.942;9.442;2023-04-03T06:28:24;95086.63;;;0.94;100.00
11487;BME280;10510;47.942;9.442;2023-04-03T06:30:24;95083.16;;;0.95;100.00
11487;BME280;10510;47.942;9.442;2023-04-03T06:32:25;95086.53;;;0.96;100.00
11487;BME280;10510;47.942;9.442;2023-04-03T06:34:26;95086.44;;;0.97;100.00
11487;BME280;10510;47.942;9.442;2023-04-03T06:36:26;95095.78;;;0.98;100.00
11487;BME280;10510;47.942;9.442;2023-04-03T06:38:26;95086.31;;;0.99;100.00
11487;BME280;10510;47.942;9.442;2023-04-03T06:40:27;95089.59;;;1.01;100.00
11487;BME280;10510;47.942;9.442;2023-04-03T06:42:27;95089.13;;;1.07;100.00
11487;BME280;10510;47.942;9.442;2023-04-03T06:44:27;95092.44;;;1.09;100.00
11487;BME280;10510;47.942;9.442;2023-04-03T06:46:28;95092.19;;;1.12;100.00
11487;BME280;10510;47.942;9.442;2023-04-03T06:48:28;95093.59;;;1.16;100.00
11487;BME280;10510;47.942;9.442;2023-04-03T06:50:28;95089.84;;;1.20;100.00
11487;BME280;10510;47.942;9.442;2023-04-03T06:52:29;95085.31;;;1.24;100.00
11487;BME280;10510;47.942;9.442;2023-04-03T06:54:29;95091.03;;;1.27;100.00
11487;BME280;10510;47.942;9.442;2023-04-03T06:56:30;95087.41;;;1.30;100.00
11487;BME280;10510;47.942;9.442;2023-04-03T06:58:30;95098.06;;;1.36;100.00
11487;BME280;10510;47.942;9.442;2023-04-03T07:00:31;95089.16;;;1.41;100.00
11487;BME280;10510;47.942;9.442;2023-04-03T07:02:31;95095.03;;;1.43;100.00
11487;BME280;10510;47.942;9.442;2023-04-03T07:04:31;95091.41;;;1.45;100.00
11487;BME280;10510;47.942;9.442;2023-04-03T07:06:31;95095.97;;;1.53;100.00
11487;BME280;10510;47.942;9.442;2023-04-03T07:08:34;95094.00;;;1.56;100.00
11487;BME280;10510;47.942;9.442;2023-04-03T07:10:34;95083.56;;;1.58;100.00
11487;BME280;10510;47.942;9.442;2023-04-03T07:12:34;95090.38;;;1.59;100.00
11487;BME280;10510;47.942;9.442;2023-04-03T07:14:35;95096.66;;;1.66;100.00
11487;BME280;10510;47.942;9.442;2023-04-03T07:16:35;95097.16;;;1.71;100.00
11487;BME280;10510;47.942;9.442;2023-04-03T07:18:36;95093.63;;;1.72;100.00
11487;BME280;10510;47.942;9.442;2023-04-03T07:20:36;95098.19;;;1.80;100.00
11487;BME280;10510;47.942;9.442;2023-04-03T07:22:36;95089.97;;;1.86;100.00
11487;BME280;10510;47.942;9.442;2023-04-03T07:24:37;95094.91;;;1.89;100.00
11487;BME280;10510;47.942;9.442;2023-04-03T07:26:37;95092.31;;;1.89;100.00
11487;BME280;10510;47.942;9.442;2023-04-03T07:28:37;95094.09;;;1.89;100.00
11487;BME280;10510;47.942;9.442;2023-04-03T07:30:50;95097.94;;;1.94;100.00
11487;BME280;10510;47.942;9.442;2023-04-03T07:32:51;95097.56;;;1.99;100.00
11487;BME280;10510;47.942;9.442;2023-04-03T07:34:51;95096.28;;;2.04;100.00
11487;BME280;10510;47.942;9.442;2023-04-03T07:36:51;95104.09;;;2.14;100.00
11487;BME280;10510;47.942;9.442;2023-04-03T07:38:52;95094.38;;;2.18;100.00
11487;BME280;10510;47.942;9.442;2023-04-03T07:40:52;95107.63;;;2.24;100.00
11487;BME280;10510;47.942;9.442;2023-04-03T07:42:52;95107.00;;;2.32;100.00
11487;BME280;10510;47.942;9.442;2023-04-03T07:44:53;95111.34;;;2.32;100.00
11487;BME280;10510;47.942;9.442;2023-04-03T07:46:54;95115.22;;;2.26;100.00
11487;BME280;10510;47.942;9.442;2023-04-03T07:48:56;95107.84;;;2.21;100.00
11487;BME280;10510;47.942;9.442;2023-04-03T07:50:59;95107.84;;;2.21;100.00
11487;BME280;10510;47.942;9.442;2023-04-03T07:53:00;95115.22;;;2.26;100.00
11487;BME280;10510;47.942;9.442;2023-04-03T07:55:01;95122.34;;;2.34;100.00
11487;BME280;10510;47.942;9.442;2023-04-03T07:57:01;95115.56;;;2.33;100.00
11487;BME280;10510;47.942;9.442;2023-04-03T07:59:02;95117.06;;;2.35;100.00
11487;BME280;10510;47.942;9.442;2023-04-03T08:01:03;95115.75;;;2.41;100.00
11487;BME280;10510;47.942;9.442;2023-04-03T08:03:03;95125.59;;;2.47;100.00
11487;BME280;10510;47.942;9.442;2023-04-03T08:05:04;95116.78;;;2.49;100.00
11487;BME280;10510;47.942;9.442;2023-04-03T08:07:04;95125.00;;;2.55;100.00
11487;BME280;10510;47.942;9.442;2023-04-03T08:09:05;95119.84;;;2.55;100.00
11487;BME280;10510;47.942;9.442;2023-04-03T08:11:05;95121.34;;;2.57;100.00
11487;BME280;10510;47.942;9.442;2023-04-03T08:13:08;95127.22;;;2.59;100.00
11487;BME280;10510;47.942;9.442;2023-04-03T08:15:09;95130.63;;;2.60;100.00
11487;BME280;10510;47.942;9.442;2023-04-03T08:17:09;95128.59;;;2.63;100.00
11487;BME280;10510;47.942;9.442;2023-04-03T08:19:11;95123.75;;;2.70;100.00
11487;BME280;10510;47.942;9.442;2023-04-03T08:21:13;95131.00;;;2.76;100.00
11487;BME280;10510;47.942;9.442;2023-04-03T08:23:13;95128.31;;;2.78;100.00
11487;BME280;10510;47.942;9.442;2023-04-03T08:25:15;95127.94;;;2.82;100.00
11487;BME280;10510;47.942;9.442;2023-04-03T08:27:15;95124.53;;;2.82;100.00
11487;BME280;10510;47.942;9.442;2023-04-03T08:29:16;95132.53;;;2.79;100.00
11487;BME280;10510;47.942;9.442;2023-04-03T08:31:18;95127.94;;;2.82;100.00
11487;BME280;10510;47.942;9.442;2023-04-03T08:33:19;95130.72;;;2.90;100.00
11487;BME280;10510;47.942;9.442;2023-04-03T08:35:20;95133.44;;;2.89;100.00
11487;BME280;10510;47.942;9.442;2023-04-03T08:37:20;95136.53;;;2.83;100.00
11487;BME280;10510;47.942;9.442;2023-04-03T08:39:21;95136.53;;;2.83;100.00
11487;BME280;10510;47.942;9.442;2023-04-03T08:43:54;95133.78;;;2.84;100.00
11487;BME280;10510;47.942;9.442;2023-04-03T08:45:59;95145.88;;;2.84;100.00
11487;BME280;10510;47.942;9.442;2023-04-03T08:48:04;95140.84;;;2.82;100.00
11487;BME280;10510;47.942;9.442;2023-04-03T08:50:12;95137.19;;;2.85;100.00
11487;BME280;10510;47.942;9.442;2023-04-03T08:52:16;95134.81;;;2.93;100.00
11487;BME280;10510;47.942;9.442;2023-04-03T08:54:30;95132.69;;;2.98;100.00
11487;BME280;10510;47.942;9.442;2023-04-03T08:56:33;95140.69;;;2.95;100.00
11487;BME280;10510;47.942;9.442;2023-04-03T08:58:50;95141.28;;;2.87;100.00
11487;BME280;10510;47.942;9.442;2023-04-03T09:00:58;95140.78;;;2.93;100.00
11487;BME280;10510;47.942;9.442;2023-04-03T09:03:00;95146.41;;;2.99;100.00
11487;BME280;10510;47.942;9.442;2023-04-03T09:05:02;95145.81;;;3.06;100.00
11487;BME280;10510;47.942;9.442;2023-04-03T09:07:10;95146.69;;;3.16;100.00
11487;BME280;10510;47.942;9.442;2023-04-03T09:09:23;95153.31;;;3.30;100.00
11487;BME280;10510;47.942;9.442;2023-04-03T09:15:46;95154.63;;;3.46;100.00
11487;BME280;10510;47.942;9.442;2023-04-03T09:17:56;95155.34;;;3.57;100.00
11487;BME280;10510;47.942;9.442;2023-04-03T09:20:17;95154.47;;;3.68;100.00
11487;BME280;10510;47.942;9.442;2023-04-03T09:22:24;95157.09;;;3.78;100.00
11487;BME280;10510;47.942;9.442;2023-04-03T09:24:25;95160.75;;;3.75;100.00
11487;BME280;10510;47.942;9.442;2023-04-03T09:26:33;95158.81;;;3.68;100.00
11487;BME280;10510;47.942;9.442;2023-04-03T09:28:38;95156.16;;;3.58;100.00
11487;BME280;10510;47.942;9.442;2023-04-03T09:30:39;95151.00;;;3.58;100.00
11487;BME280;10510;47.942;9.442;2023-04-03T09:32:39;95150.19;;;3.57;100.00
11487;BME280;10510;47.942;9.442;2023-04-03T09:34:41;95154.25;;;3.50;100.00
11487;BME280;10510;47.942;9.442;2023-04-03T09:36:46;95150.72;;;3.51;100.00
11487;BME280;10510;47.942;9.442;2023-04-03T09:39:03;95155.88;;;3.51;100.00
11487;BME280;10510;47.942;9.442;2023-04-03T09:41:07;95152.72;;;3.48;100.00
11487;BME280;10510;47.942;9.442;2023-04-03T09:45:26;95158.81;;;3.47;100.00
11487;BME280;10510;47.942;9.442;2023-04-03T09:47:30;95148.81;;;3.53;100.00
11487;BME280;10510;47.942;9.442;2023-04-03T09:49:30;95148.47;;;3.68;100.00
11487;BME280;10510;47.942;9.442;2023-04-03T09:51:31;95146.19;;;3.74;100.00
11487;BME280;10510;47.942;9.442;2023-04-03T09:53:40;95149.72;;;3.73;100.00
11487;BME280;10510;47.942;9.442;2023-04-03T09:55:43;95150.56;;;3.74;100.00
11487;BME280;10510;47.942;9.442;2023-04-03T09:57:45;95151.94;;;3.78;100.00
11487;BME280;10510;47.942;9.442;2023-04-03T09:59:57;95153.28;;;3.82;100.00
11487;BME280;10510;47.942;9.442;2023-04-03T10:02:12;95144.59;;;3.83;100.00
11487;BME280;10510;47.942;9.442;2023-04-03T10:04:19;95146.22;;;3.84;100.00
11487;BME280;10510;47.942;9.442;2023-04-03T10:06:23;95156.59;;;3.84;100.00
11487;BME280;10510;47.942;9.442;2023-04-03T10:08:30;95148.56;;;3.87;100.00
11487;BME280;10510;47.942;9.442;2023-04-03T10:10:30;95148.03;;;3.93;100.00
11487;BME280;10510;47.942;9.442;2023-04-03T10:12:31;95141.97;;;4.04;100.00
11487;BME280;10510;47.942;9.442;2023-04-03T10:14:35;95147.16;;;4.14;100.00
11487;BME280;10510;47.942;9.442;2023-04-03T10:16:41;95148.56;;;4.18;100.00
11487;BME280;10510;47.942;9.442;2023-04-03T10:21:00;95134.56;;;4.30;100.00
11487;BME280;10510;47.942;9.442;2023-04-03T10:25:27;95141.78;;;4.36;100.00
11487;BME280;10510;47.942;9.442;2023-04-03T10:30:19;95141.09;;;4.44;100.00
11487;BME280;10510;47.942;9.442;2023-04-03T10:32:44;95128.84;;;4.55;100.00
11487;BME280;10510;47.942;9.442;2023-04-03T10:34:45;95115.13;;;4.65;100.00
11487;BME280;10510;47.942;9.442;2023-04-03T10:37:04;95131.06;;;4.70;100.00
11487;BME280;10510;47.942;9.442;2023-04-03T10:39:27;95123.28;;;4.70;100.00
11487;BME280;10510;47.942;9.442;2023-04-03T10:44:02;95123.56;;;4.67;100.00
11487;BME280;10510;47.942;9.442;2023-04-03T10:46:13;95124.25;;;4.59;100.00
11487;BME280;10510;47.942;9.442;2023-04-03T10:48:36;95116.47;;;4.59;100.00
11487;BME280;10510;47.942;9.442;2023-04-03T10:50:53;95125.47;;;4.84;100.00
11487;BME280;10510;47.942;9.442;2023-04-03T10:53:05;95128.19;;;5.02;100.00
11487;BME280;10510;47.942;9.442;2023-04-03T10:57:27;95122.06;;;5.13;100.00
11487;BME280;10510;47.942;9.442;2023-04-03T11:01:42;95118.34;;;5.35;100.00
11487;BME280;10510;47.942;9.442;2023-04-03T11:03:47;95116.94;;;5.60;100.00
11487;BME280;10510;47.942;9.442;2023-04-03T11:05:51;95124.53;;;5.71;100.00
11487;BME280;10510;47.942;9.442;2023-04-03T11:07:55;95117.69;;;5.70;100.00
11487;BME280;10510;47.942;9.442;2023-04-03T11:10:02;95122.59;;;5.73;100.00
11487;BME280;10510;47.942;9.442;2023-04-03T11:12:09;95120.53;;;5.86;100.00